Time;durP1;ratioP1;P1;durP2;ratioP2;P2;SDS_P1;SDS_P2;PMS_P1;PMS_P2;Temp;Humidity;BMP_temperature;BMP_pressure;BME280_temperature;BME280_humidity;BME280_pressure;Samples;Min_cycle;Max_cycle;Signal;HPM_P1;HPM_P2
2021/01/12 09:14:55;;;;;;;7.80;5.30;;;5.20;51.80;;;;;;4922943;29;20231;-93
2021/01/12 09:17:22;;;;;;;7.85;6.05;;;5.00;51.20;;;;;;4899217;29;20171;-95
2021/01/12 09:19:52;;;;;;;6.28;4.80;;;5.00;52.10;;;;;;4897174;29;20206;-93
2021/01/12 09:28:49;;;;;;;5.97;4.80;;;4.50;52.80;;;;;;4900481;29;20251;-93
2021/01/12 09:31:56;;;;;;;7.13;5.10;;;5.00;53.40;;;;;;4897766;29;20589;-95
2021/01/12 12:39:06;;;;;;;8.38;4.88;;;4.70;66.50;;;;;;4919122;29;20174;-93
2021/01/12 12:41:32;;;;;;;5.35;4.07;;;4.70;66.00;;;;;;4907690;29;20174;-93
2021/01/12 12:44:00;;;;;;;4.28;3.33;;;4.50;65.40;;;;;;4890294;29;20172;-91
2021/01/12 12:46:26;;;;;;;5.07;3.70;;;4.70;64.40;;;;;;4903012;29;20195;-92
2021/01/12 12:48:54;;;;;;;4.43;4.00;;;4.50;64.20;;;;;;4917265;29;20227;-94
2021/01/12 12:51:21;;;;;;;5.43;4.50;;;4.80;62.70;;;;;;4901798;29;20260;-92
2021/01/12 12:53:48;;;;;;;6.18;4.78;;;4.80;63.60;;;;;;4897294;29;20578;-94
2021/01/12 12:56:16;;;;;;;4.18;3.78;;;5.00;63.60;;;;;;4904720;29;20292;-94
2021/01/12 12:58:47;;;;;;;5.03;3.85;;;5.00;62.90;;;;;;4899561;29;20259;-94
2021/01/12 13:01:14;;;;;;;4.18;3.65;;;5.30;62.70;;;;;;4892835;29;20199;-94
2021/01/12 13:07:09;;;;;;;5.05;4.28;;;5.00;64.00;;;;;;4916722;29;20722;-94
2021/01/12 13:09:35;;;;;;;4.78;4.00;;;5.20;63.60;;;;;;4890868;29;20638;-95
2021/01/12 13:12:39;;;;;;;5.32;4.82;;;5.00;63.40;;;;;;4901522;29;20171;-95
2021/01/12 13:15:06;;;;;;;5.30;4.20;;;5.20;63.40;;;;;;4916472;29;20219;-93
2021/01/12 13:18:11;;;;;;;4.70;3.22;;;5.10;62.30;;;;;;4907203;29;20205;-93
2021/01/12 13:20:38;;;;;;;4.70;3.97;;;5.00;64.20;;;;;;4909534;29;20540;-93
2021/01/12 13:23:10;;;;;;;5.10;4.07;;;5.30;63.60;;;;;;4900914;29;20168;-93
2021/01/12 13:25:37;;;;;;;4.20;3.80;;;4.90;63.80;;;;;;4896457;29;20183;-91
2021/01/12 13:28:04;;;;;;;4.60;3.80;;;4.90;63.80;;;;;;4897300;29;20199;-89
2021/01/12 13:30:29;;;;;;;4.10;2.80;;;5.10;64.40;;;;;;4897730;29;20601;-90
2021/01/12 13:33:03;;;;;;;4.37;3.47;;;5.00;64.70;;;;;;4906238;29;20231;-91
2021/01/12 13:35:29;;;;;;;3.80;3.03;;;4.80;65.20;;;;;;4895655;29;20227;-92
2021/01/12 13:37:54;;;;;;;4.30;3.60;;;5.20;66.40;;;;;;4897345;29;20179;-90
2021/01/12 13:40:23;;;;;;;4.67;3.50;;;4.80;65.60;;;;;;4891316;29;20180;-91
2021/01/12 13:42:52;;;;;;;3.17;2.80;;;5.10;66.20;;;;;;4898173;29;20419;-90
2021/01/12 13:45:18;;;;;;;3.10;2.80;;;5.10;66.50;;;;;;4897339;29;20172;-90
2021/01/12 13:47:47;;;;;;;3.53;3.22;;;4.90;66.20;;;;;;4897321;29;20210;-90
2021/01/12 13:50:13;;;;;;;3.45;3.15;;;4.80;65.60;;;;;;4897894;29;20171;-91
2021/01/12 13:52:39;;;;;;;3.00;2.72;;;5.10;67.10;;;;;;4919022;29;20182;-91
2021/01/12 13:55:06;;;;;;;2.92;2.50;;;4.70;66.80;;;;;;4906208;29;20194;-93
2021/01/12 13:58:05;;;;;;;3.70;3.00;;;4.90;66.00;;;;;;4907021;29;20186;-91
2021/01/12 14:00:32;;;;;;;2.72;2.30;;;4.90;65.60;;;;;;4853949;29;20255;-86
2021/01/12 14:02:58;;;;;;;3.22;2.50;;;4.80;65.70;;;;;;4886902;29;20207;-92
2021/01/12 14:09:15;;;;;;;2.63;2.40;;;4.90;65.80;;;;;;4921941;29;20181;-92
2021/01/12 14:11:41;;;;;;;2.50;2.30;;;5.20;66.40;;;;;;4905183;29;20207;-92
2021/01/12 14:14:32;;;;;;;1.90;1.80;;;5.10;65.50;;;;;;4904601;29;20195;-92
2021/01/12 14:17:02;;;;;;;1.92;1.83;;;4.90;66.30;;;;;;4904909;29;20195;-92
2021/01/12 14:19:55;;;;;;;2.10;1.90;;;5.00;65.80;;;;;;4904933;29;20171;-93
2021/01/12 14:22:20;;;;;;;3.22;2.22;;;4.90;67.40;;;;;;4905999;29;20171;-85
2021/01/12 14:25:02;;;;;;;3.00;2.07;;;4.90;66.90;;;;;;4900658;29;20175;-91
2021/01/12 14:27:29;;;;;;;2.88;1.67;;;4.80;67.10;;;;;;4900196;29;20221;-91
2021/01/12 14:30:03;;;;;;;2.00;1.80;;;4.60;66.40;;;;;;4905404;29;20258;-91
2021/01/12 14:32:29;;;;;;;2.55;1.90;;;5.00;67.90;;;;;;4905437;29;20218;-91
2021/01/12 14:34:55;;;;;;;2.63;1.50;;;4.40;67.30;;;;;;4895332;29;20288;-91
2021/01/12 14:37:24;;;;;;;1.97;1.40;;;4.70;67.50;;;;;;4889749;29;20419;-91
2021/01/12 14:40:04;;;;;;;1.83;1.55;;;4.80;67.50;;;;;;4890817;29;20175;-91
2021/01/12 14:42:37;;;;;;;1.85;1.70;;;5.00;67.60;;;;;;4912671;29;20202;-93
2021/01/12 14:45:23;;;;;;;2.75;2.05;;;5.30;66.80;;;;;;4905517;29;20693;-90
2021/01/12 14:47:48;;;;;;;2.50;1.80;;;5.20;64.80;;;;;;4904911;29;20211;-91
2021/01/12 14:53:39;;;;;;;2.08;1.55;;;5.30;65.80;;;;;;4902547;29;20658;-93
2021/01/12 14:59:29;;;;;;;1.92;1.58;;;5.30;65.40;;;;;;4921635;29;20219;-92
2021/01/12 15:02:00;;;;;;;1.55;1.33;;;5.50;65.80;;;;;;4905543;29;20203;-93
2021/01/12 15:04:26;;;;;;;1.80;1.50;;;5.40;66.80;;;;;;4904241;29;20163;-91
2021/01/12 15:06:52;;;;;;;3.92;1.30;;;5.10;67.00;;;;;;4901104;29;20210;-90
2021/01/12 15:09:20;;;;;;;1.92;1.45;;;4.80;66.30;;;;;;4893188;29;20596;-90
2021/01/12 15:11:46;;;;;;;1.70;1.50;;;5.40;66.10;;;;;;4896280;29;20168;-90
2021/01/12 15:14:12;;;;;;;1.58;1.17;;;5.30;66.20;;;;;;4892535;29;20175;-90
2021/01/12 15:16:38;;;;;;;1.80;1.70;;;5.20;65.30;;;;;;4893398;29;20186;-90
2021/01/12 15:19:04;;;;;;;1.20;1.10;;;5.10;65.30;;;;;;4896055;29;20427;-90
2021/01/12 15:21:29;;;;;;;1.53;1.40;;;5.20;66.80;;;;;;4890679;29;20172;-88
2021/01/12 15:23:55;;;;;;;1.97;1.40;;;5.30;68.10;;;;;;4895044;29;20187;-92
2021/01/12 15:26:22;;;;;;;1.37;1.10;;;5.20;66.30;;;;;;4901361;29;20206;-90
2021/01/12 15:28:48;;;;;;;1.70;1.33;;;5.50;65.30;;;;;;4898603;29;20627;-90
2021/01/12 15:31:20;;;;;;;1.40;1.30;;;5.20;66.20;;;;;;4902536;29;20172;-91
2021/01/12 15:33:46;;;;;;;1.30;1.10;;;4.70;65.70;;;;;;4889633;29;20216;-90
2021/01/12 15:36:14;;;;;;;1.65;1.55;;;5.00;65.70;;;;;;4895143;29;20182;-90
2021/01/12 15:38:41;;;;;;;1.40;1.27;;;5.20;63.80;;;;;;4893066;29;20626;-91
2021/01/12 15:41:08;;;;;;;1.65;1.40;;;5.50;64.10;;;;;;4890997;29;20538;-91
2021/01/12 15:43:41;;;;;;;1.80;1.50;;;5.30;63.50;;;;;;4891688;29;20186;-90
2021/01/12 15:46:07;;;;;;;1.50;1.40;;;5.20;64.00;;;;;;4895296;29;20578;-90
2021/01/12 15:48:34;;;;;;;1.27;1.17;;;5.20;63.40;;;;;;4904292;29;20658;-89
2021/01/12 15:51:08;;;;;;;1.80;1.23;;;5.10;65.20;;;;;;4896742;29;20634;-89
2021/01/12 15:53:37;;;;;;;1.13;1.02;;;5.00;65.30;;;;;;4890844;29;20168;-89
2021/01/12 15:56:04;;;;;;;1.30;1.20;;;4.80;64.20;;;;;;4902942;29;20147;-88
2021/01/12 15:58:30;;;;;;;1.35;1.23;;;5.30;64.30;;;;;;4887590;29;20200;-92
2021/01/12 16:00:56;;;;;;;1.50;1.40;;;5.20;64.30;;;;;;4902846;29;20207;-90
2021/01/12 16:03:25;;;;;;;2.13;1.80;;;5.10;63.10;;;;;;4899461;29;20412;-92
2021/01/12 16:05:53;;;;;;;1.40;1.25;;;5.20;63.60;;;;;;4894565;29;20420;-91
2021/01/12 16:08:23;;;;;;;1.60;1.50;;;5.00;63.90;;;;;;4887342;29;20614;-91
2021/01/12 16:10:50;;;;;;;1.50;1.40;;;5.20;64.40;;;;;;4904882;29;20159;-92
2021/01/12 16:13:20;;;;;;;2.13;1.80;;;5.00;65.10;;;;;;4899691;29;20168;-92
2021/01/12 16:15:46;;;;;;;1.80;1.70;;;4.90;66.50;;;;;;4887171;29;20206;-93
2021/01/12 16:18:24;;;;;;;1.52;1.27;;;4.90;66.50;;;;;;4914374;29;20580;-92
2021/01/12 16:20:50;;;;;;;1.67;1.58;;;5.30;65.50;;;;;;4890771;29;20566;-91
2021/01/12 16:23:17;;;;;;;1.52;1.30;;;5.10;65.20;;;;;;4894391;29;20168;-89
2021/01/12 16:25:46;;;;;;;1.30;1.20;;;5.20;64.60;;;;;;4910070;29;20163;-89
2021/01/12 16:28:18;;;;;;;1.52;1.05;;;5.20;63.20;;;;;;4907408;29;20256;-88
2021/01/12 16:30:45;;;;;;;0.90;0.90;;;5.30;63.40;;;;;;4904478;29;20249;-88
2021/01/12 16:33:25;;;;;;;1.30;1.15;;;5.20;64.40;;;;;;4907007;29;20622;-88
2021/01/12 16:35:53;;;;;;;1.88;1.25;;;5.20;63.60;;;;;;4903463;29;20187;-88
2021/01/12 16:38:33;;;;;;;1.40;1.20;;;5.00;64.90;;;;;;4905160;29;20190;-90
2021/01/12 16:40:59;;;;;;;1.80;1.40;;;5.30;64.50;;;;;;4896000;29;20653;-83
2021/01/12 16:44:01;;;;;;;1.50;1.40;;;5.30;63.90;;;;;;4913276;29;20207;-90
2021/01/12 16:46:28;;;;;;;1.42;1.27;;;5.10;63.60;;;;;;4906930;29;20182;-91
2021/01/12 16:48:56;;;;;;;2.95;2.72;;;5.20;62.80;;;;;;4901799;29;20172;-90
2021/01/12 16:51:26;;;;;;;5.47;4.40;;;5.30;62.80;;;;;;4904029;29;20249;-93
2021/01/12 16:54:07;;;;;;;4.30;2.97;;;5.30;62.20;;;;;;4925260;29;20167;-84
2021/01/12 16:56:36;;;;;;;2.40;2.20;;;5.30;62.60;;;;;;4907206;29;20583;-83
2021/01/12 16:59:08;;;;;;;2.17;2.08;;;5.30;63.80;;;;;;4904154;29;20176;-88
2021/01/12 17:01:36;;;;;;;2.22;1.75;;;5.30;62.00;;;;;;4897903;29;20250;-91
2021/01/12 17:04:03;;;;;;;3.05;2.08;;;5.50;62.10;;;;;;4895486;29;20258;-91
2021/01/12 17:06:33;;;;;;;4.55;2.97;;;5.70;61.00;;;;;;4909342;29;20167;-92
2021/01/12 17:09:07;;;;;;;1.77;1.67;;;5.70;59.90;;;;;;4909320;29;20167;-90
2021/01/12 17:11:36;;;;;;;3.67;3.47;;;5.10;59.70;;;;;;4908706;29;20197;-91
2021/01/12 17:14:14;;;;;;;2.42;2.25;;;5.70;60.00;;;;;;4893179;29;20168;-91
2021/01/12 17:16:45;;;;;;;3.22;1.42;;;5.70;60.10;;;;;;4887980;29;20282;-89
2021/01/12 17:19:13;;;;;;;1.65;1.55;;;5.70;60.70;;;;;;4919159;29;20178;-89
2021/01/12 17:21:47;;;;;;;2.00;1.90;;;5.40;60.80;;;;;;4899123;29;20187;-91
2021/01/12 17:24:17;;;;;;;2.05;1.83;;;5.70;59.50;;;;;;4895267;29;20657;-90
2021/01/12 17:26:47;;;;;;;1.50;1.35;;;5.70;59.10;;;;;;4889471;29;20574;-91
2021/01/12 17:29:32;;;;;;;2.25;1.45;;;5.90;59.10;;;;;;4904932;29;20202;-90
2021/01/12 17:32:02;;;;;;;1.45;1.30;;;6.00;58.30;;;;;;4907931;29;20612;-91
2021/01/12 17:34:28;;;;;;;2.53;1.55;;;5.90;59.20;;;;;;4906478;29;20221;-91
2021/01/12 17:36:59;;;;;;;2.43;1.70;;;5.90;58.40;;;;;;4906278;29;20262;-91
2021/01/12 17:39:49;;;;;;;1.83;1.73;;;6.00;57.90;;;;;;4906367;29;20430;-88
2021/01/12 17:42:15;;;;;;;2.05;1.73;;;6.10;57.80;;;;;;4905399;29;20191;-90
2021/01/12 17:44:41;;;;;;;1.25;1.15;;;5.50;57.30;;;;;;4895750;29;20186;-91
2021/01/12 17:47:09;;;;;;;2.53;1.98;;;6.20;58.30;;;;;;4886425;29;20215;-91
2021/01/12 17:49:42;;;;;;;4.00;2.00;;;6.00;57.80;;;;;;4903630;29;20227;-91
2021/01/12 17:52:13;;;;;;;5.47;4.05;;;6.00;57.30;;;;;;4905655;29;20649;-91
2021/01/12 17:54:48;;;;;;;1.85;1.75;;;6.00;57.60;;;;;;4904835;29;20179;-90
2021/01/12 17:57:14;;;;;;;3.63;1.75;;;5.80;59.40;;;;;;4926347;29;20166;-90
2021/01/12 17:59:42;;;;;;;1.40;1.30;;;5.60;59.90;;;;;;4916477;29;20538;-89
2021/01/12 18:02:09;;;;;;;3.22;2.00;;;5.30;60.00;;;;;;4904869;29;20626;-91
2021/01/12 18:04:35;;;;;;;1.35;1.25;;;5.60;60.80;;;;;;4904930;29;20171;-90
2021/01/12 18:07:11;;;;;;;1.88;1.55;;;5.70;61.20;;;;;;4901034;29;20278;-90
2021/01/12 18:09:47;;;;;;;2.10;1.90;;;5.50;60.10;;;;;;4889555;29;20175;-94
2021/01/12 18:12:13;;;;;;;2.55;2.30;;;5.30;60.10;;;;;;4887252;29;20627;-91
2021/01/12 18:14:49;;;;;;;1.67;1.57;;;5.80;60.20;;;;;;4889944;29;20176;-92
2021/01/12 18:17:14;;;;;;;1.92;1.70;;;6.00;59.20;;;;;;4889743;29;20478;-90
2021/01/12 18:19:43;;;;;;;2.40;1.70;;;5.90;60.50;;;;;;4892008;29;20691;-90
2021/01/12 18:22:11;;;;;;;2.60;1.70;;;5.60;60.70;;;;;;4897631;29;20191;-90
2021/01/12 18:24:45;;;;;;;3.13;2.22;;;5.70;59.70;;;;;;4894482;29;20175;-90
2021/01/12 18:27:36;;;;;;;1.95;1.83;;;5.70;59.80;;;;;;4899403;29;20199;-91
2021/01/12 18:30:08;;;;;;;3.92;2.90;;;5.70;59.60;;;;;;4902044;29;20183;-90
2021/01/12 18:32:35;;;;;;;1.70;1.35;;;5.80;59.80;;;;;;4890034;29;20176;-91
2021/01/12 18:35:02;;;;;;;2.50;2.17;;;5.60;59.70;;;;;;4897088;29;20701;-91
2021/01/12 18:37:31;;;;;;;2.08;1.70;;;6.00;60.20;;;;;;4892683;29;20180;-92
2021/01/12 18:40:03;;;;;;;1.35;1.25;;;5.80;60.30;;;;;;4892141;29;20184;-93
2021/01/12 18:42:33;;;;;;;2.17;1.27;;;5.90;59.40;;;;;;4899973;29;20634;-91
2021/01/12 18:44:59;;;;;;;3.03;2.72;;;5.70;59.00;;;;;;4895374;29;20549;-89
2021/01/12 18:47:25;;;;;;;2.00;1.80;;;5.70;59.80;;;;;;4886846;29;20444;-90
2021/01/12 18:49:52;;;;;;;3.25;2.35;;;5.60;59.50;;;;;;4917956;29;20404;-92
2021/01/12 18:52:37;;;;;;;1.70;1.55;;;5.70;59.90;;;;;;4887608;29;20702;-92
2021/01/12 18:55:07;;;;;;;1.60;1.50;;;5.70;60.50;;;;;;4888942;29;20515;-93
2021/01/12 18:57:34;;;;;;;2.15;2.05;;;5.70;59.60;;;;;;4888228;29;20455;-93
2021/01/12 19:00:00;;;;;;;1.83;1.60;;;5.60;59.70;;;;;;4899160;29;20183;-93
2021/01/12 19:02:38;;;;;;;5.40;1.93;;;5.90;59.10;;;;;;4893600;29;20635;-92
2021/01/12 19:05:06;;;;;;;1.40;1.30;;;6.10;58.80;;;;;;4885652;29;20989;-92
2021/01/12 19:07:35;;;;;;;2.83;1.92;;;6.00;58.50;;;;;;4890687;29;20203;-92
2021/01/12 19:10:01;;;;;;;2.65;1.95;;;5.50;58.00;;;;;;4902913;29;20164;-91
2021/01/12 19:12:33;;;;;;;1.65;1.55;;;6.20;59.00;;;;;;4919302;29;20178;-90
2021/01/12 19:14:59;;;;;;;2.33;1.70;;;5.70;59.20;;;;;;4905503;29;20182;-93
2021/01/12 19:17:29;;;;;;;1.43;1.33;;;5.90;59.60;;;;;;4891974;29;20179;-92
2021/01/12 19:19:58;;;;;;;1.52;1.42;;;5.80;59.30;;;;;;4894408;29;20416;-92
2021/01/12 19:22:35;;;;;;;4.35;4.10;;;5.90;59.00;;;;;;4896162;29;20267;-92
2021/01/12 19:25:01;;;;;;;1.88;1.70;;;6.00;58.10;;;;;;4889750;29;20626;-90
2021/01/12 19:27:34;;;;;;;1.43;1.33;;;5.90;58.70;;;;;;4896069;29;20250;-94
2021/01/12 19:30:02;;;;;;;1.92;1.83;;;6.00;58.80;;;;;;4909071;29;20426;-91
2021/01/12 19:32:34;;;;;;;2.42;1.60;;;6.00;58.10;;;;;;4907942;29;20203;-92
2021/01/12 19:35:02;;;;;;;1.88;1.77;;;6.10;57.60;;;;;;4905420;29;20219;-88
2021/01/12 19:37:28;;;;;;;1.90;1.60;;;6.20;57.60;;;;;;4919338;29;20175;-88
2021/01/12 19:40:04;;;;;;;1.65;1.55;;;6.30;57.60;;;;;;4902114;29;20186;-88
2021/01/12 19:42:34;;;;;;;0.95;0.95;;;6.60;57.40;;;;;;4898085;29;20235;-90
2021/01/12 19:45:16;;;;;;;1.88;1.77;;;6.70;56.60;;;;;;4895017;29;20662;-87
2021/01/12 19:47:53;;;;;;;1.70;1.60;;;6.70;56.30;;;;;;4883347;29;20302;-87
2021/01/12 19:50:19;;;;;;;3.45;2.08;;;6.80;55.50;;;;;;4882587;29;20176;-87
2021/01/12 19:52:54;;;;;;;1.70;1.60;;;6.30;56.10;;;;;;4897449;29;20175;-85
2021/01/12 19:55:20;;;;;;;2.58;2.38;;;6.40;56.60;;;;;;4886037;29;20234;-88
2021/01/12 20:01:12;;;;;;;3.25;2.95;;;6.30;57.90;;;;;;4906487;29;20173;-93
2021/01/12 20:03:43;;;;;;;3.95;3.40;;;6.30;57.30;;;;;;4908011;29;20179;-95
2021/01/12 20:06:23;;;;;;;2.47;2.28;;;6.60;56.90;;;;;;4909982;29;20182;-94
2021/01/12 20:08:49;;;;;;;3.13;2.83;;;6.90;56.50;;;;;;4889825;29;20247;-94
2021/01/12 20:11:16;;;;;;;2.33;1.97;;;6.60;55.20;;;;;;4908563;29;20167;-92
2021/01/12 20:13:42;;;;;;;2.55;2.35;;;7.10;55.80;;;;;;4911319;29;20463;-92
2021/01/12 20:16:46;;;;;;;2.97;2.63;;;7.10;55.10;;;;;;4910615;29;20222;-93
2021/01/12 20:19:25;;;;;;;1.33;1.23;;;7.30;54.40;;;;;;4929195;29;20407;-95
2021/01/12 20:21:59;;;;;;;1.70;1.60;;;7.20;54.50;;;;;;4908368;29;20234;-93
2021/01/12 20:28:00;;;;;;;1.13;1.02;;;6.80;55.90;;;;;;4926063;29;20565;-96
2021/01/12 20:34:40;;;;;;;2.50;2.30;;;6.80;55.80;;;;;;4923653;29;20259;-96
2021/01/12 20:37:17;;;;;;;2.10;1.70;;;6.70;56.00;;;;;;4906759;29;20450;-94
2021/01/12 20:39:44;;;;;;;2.10;1.70;;;6.60;56.20;;;;;;4909217;29;20434;-94
2021/01/12 20:42:26;;;;;;;1.75;1.60;;;6.60;56.50;;;;;;4906677;29;20182;-94
2021/01/12 20:45:05;;;;;;;4.25;2.17;;;6.90;56.20;;;;;;4890131;29;20258;-94
2021/01/12 20:47:31;;;;;;;2.80;2.10;;;6.90;56.90;;;;;;4887652;29;20456;-94
2021/01/12 20:50:07;;;;;;;2.73;2.40;;;7.20;55.50;;;;;;4887144;29;20184;-94
2021/01/12 20:52:38;;;;;;;2.97;2.33;;;7.20;55.30;;;;;;4894402;29;20422;-93
2021/01/12 20:55:05;;;;;;;3.53;2.88;;;7.30;54.70;;;;;;4893972;29;20258;-94
2021/01/12 21:01:02;;;;;;;2.53;2.30;;;7.60;53.70;;;;;;4903548;29;20501;-93
2021/01/12 21:03:32;;;;;;;2.95;2.65;;;7.80;53.20;;;;;;4889234;29;20176;-91
2021/01/12 21:06:14;;;;;;;3.95;2.83;;;7.70;53.00;;;;;;4889969;29;20172;-92
2021/01/12 21:08:41;;;;;;;5.30;4.60;;;7.80;52.20;;;;;;4895501;29;20202;-94
2021/01/12 21:11:14;;;;;;;3.50;3.10;;;7.70;52.50;;;;;;4878339;29;20184;-92
2021/01/12 21:13:40;;;;;;;3.83;3.42;;;7.60;53.10;;;;;;4890504;29;20243;-93
2021/01/12 21:16:07;;;;;;;3.33;3.03;;;7.30;53.70;;;;;;4889798;29;20175;-94
2021/01/12 21:18:33;;;;;;;3.28;2.97;;;7.20;53.50;;;;;;4889494;29;20186;-94
2021/01/12 21:21:00;;;;;;;3.50;3.20;;;7.00;53.90;;;;;;4888408;29;20784;-94
2021/01/12 21:23:25;;;;;;;4.30;3.78;;;7.20;54.40;;;;;;4888702;29;20212;-94
2021/01/12 21:26:04;;;;;;;3.70;3.30;;;7.10;53.30;;;;;;4889236;29;20686;-93
2021/01/12 21:28:30;;;;;;;2.50;2.30;;;7.60;53.10;;;;;;4888667;29;20202;-95
2021/01/12 21:30:57;;;;;;;2.90;2.60;;;7.30;52.30;;;;;;4889519;29;20227;-94
2021/01/12 21:33:23;;;;;;;3.58;2.55;;;7.20;51.50;;;;;;4889920;29;20193;-92
2021/01/12 21:35:50;;;;;;;5.13;3.10;;;7.80;51.40;;;;;;4888855;29;20251;-92
2021/01/12 21:38:16;;;;;;;4.22;3.55;;;7.80;51.30;;;;;;4891293;29;20175;-93
2021/01/12 21:40:42;;;;;;;4.70;4.30;;;7.80;50.40;;;;;;4889121;29;20187;-96
2021/01/12 21:43:36;;;;;;;2.90;2.70;;;8.00;50.70;;;;;;4889499;29;20650;-95
2021/01/12 21:46:02;;;;;;;2.83;2.63;;;7.80;50.60;;;;;;4887340;29;20168;-95
2021/01/12 21:49:16;;;;;;;3.80;2.42;;;8.10;50.30;;;;;;4888154;29;20207;-95
2021/01/12 21:51:42;;;;;;;4.28;2.80;;;7.70;51.00;;;;;;4888138;29;20164;-94
2021/01/12 21:54:08;;;;;;;2.60;2.37;;;7.60;50.70;;;;;;4888097;29;20178;-95
2021/01/12 21:57:02;;;;;;;3.13;2.77;;;7.40;49.30;;;;;;4889093;29;20250;-93
2021/01/12 21:59:28;;;;;;;3.58;2.75;;;7.20;50.90;;;;;;4888481;29;20500;-95
